createdAt,value
2022-11-05T00:00:40.266Z,10.36
2022-11-05T00:03:46.040Z,10.40
2022-11-05T00:06:51.746Z,10.46
2022-11-05T00:09:41.928Z,10.47
2022-11-05T00:12:47.643Z,10.41
2022-11-05T00:15:55.655Z,10.37
2022-11-05T00:18:43.551Z,10.35
2022-11-05T00:21:49.234Z,10.35
2022-11-05T00:24:55.042Z,10.44
2022-11-05T00:27:45.444Z,10.43
2022-11-05T00:30:33.393Z,10.38
2022-11-05T00:33:21.714Z,10.06
2022-11-05T00:36:11.320Z,10.37
2022-11-05T00:38:59.250Z,10.30
2022-11-05T00:42:07.124Z,10.26
2022-11-05T00:45:01.309Z,10.23
2022-11-05T00:48:09.591Z,10.23
2022-11-05T00:50:57.646Z,10.26
2022-11-05T00:53:45.584Z,10.31
2022-11-05T00:56:33.519Z,10.26
2022-11-05T00:59:21.414Z,10.24
2022-11-05T01:02:10.799Z,10.15
2022-11-05T01:04:58.771Z,10.15
2022-11-05T01:07:46.880Z,10.04
2022-11-05T01:10:34.841Z,10.11
2022-11-05T01:13:25.333Z,10.10
2022-11-05T01:16:13.247Z,10.11
2022-11-05T01:19:03.879Z,10.17
2022-11-05T01:21:51.781Z,10.19
2022-11-05T01:24:39.727Z,10.19
2022-11-05T01:27:27.632Z,10.21
2022-11-05T01:30:15.593Z,10.14
2022-11-05T01:33:04.244Z,10.11
2022-11-05T01:35:53.559Z,10.03
2022-11-05T01:38:41.521Z,10.02
2022-11-05T01:41:29.452Z,9.98
2022-11-05T01:44:56.635Z,9.98
2022-11-05T01:47:52.425Z,10.03
2022-11-05T01:50:47.189Z,10.02
2022-11-05T01:53:42.184Z,9.72
2022-11-05T01:56:36.471Z,10.02
2022-11-05T01:59:28.190Z,10.07
2022-11-05T02:02:19.211Z,10.08
2022-11-05T02:05:08.052Z,10.06
2022-11-05T02:07:56.690Z,10.09
2022-11-05T02:10:46.866Z,10.10
2022-11-05T02:13:34.763Z,10.08
2022-11-05T02:16:36.363Z,10.02
2022-11-05T02:20:02.736Z,10.11
2022-11-05T02:23:11.713Z,10.08
2022-11-05T02:26:46.024Z,10.12
2022-11-05T02:30:04.081Z,10.12
2022-11-05T02:33:07.405Z,10.01
2022-11-05T02:36:18.790Z,9.97
2022-11-05T02:39:16.673Z,9.93
2022-11-05T02:42:13.227Z,9.99
2022-11-05T02:45:07.098Z,9.94
2022-11-05T02:48:06.210Z,9.99
2022-11-05T02:50:59.625Z,9.93
2022-11-05T02:53:52.514Z,9.97
2022-11-05T02:56:43.374Z,9.96
2022-11-05T02:59:31.362Z,9.94
2022-11-05T03:02:19.399Z,9.97
2022-11-05T03:05:09.050Z,9.91
2022-11-05T03:08:06.401Z,9.94
2022-11-05T03:11:02.378Z,9.90
2022-11-05T03:13:54.506Z,9.89
2022-11-05T03:16:44.061Z,9.90
2022-11-05T03:19:38.489Z,9.92
2022-11-05T03:22:35.650Z,9.98
2022-11-05T03:25:26.819Z,9.96
2022-11-05T03:28:15.927Z,9.96
2022-11-05T03:31:06.512Z,9.97
2022-11-05T03:33:55.894Z,9.86
2022-11-05T03:36:48.023Z,9.93
2022-11-05T03:39:41.648Z,9.89
2022-11-05T03:42:33.659Z,9.85
2022-11-05T03:45:24.528Z,9.90
2022-11-05T03:48:15.495Z,9.94
2022-11-05T03:51:09.542Z,9.94
2022-11-05T03:54:00.235Z,9.96
2022-11-05T03:57:01.789Z,9.93
2022-11-05T03:59:51.325Z,9.94
2022-11-05T04:02:39.725Z,9.95
2022-11-05T04:05:27.720Z,9.95
2022-11-05T04:08:33.223Z,9.89
2022-11-05T04:11:38.651Z,9.97
2022-11-05T04:14:27.938Z,9.94
2022-11-05T04:17:15.983Z,10.01
2022-11-05T04:20:21.959Z,9.97
2022-11-05T04:23:28.587Z,9.86
2022-11-05T04:26:16.510Z,9.83
2022-11-05T04:29:21.952Z,9.81
2022-11-05T04:32:11.225Z,9.75
2022-11-05T04:34:59.123Z,9.71
2022-11-05T04:37:46.996Z,9.69
2022-11-05T04:40:35.315Z,9.71
2022-11-05T04:43:23.677Z,9.78
2022-11-05T04:46:12.279Z,9.80
2022-11-05T04:49:01.542Z,9.83
2022-11-05T04:51:49.429Z,9.81
2022-11-05T04:54:37.391Z,9.71
2022-11-05T04:57:25.307Z,9.77
2022-11-05T05:00:13.580Z,9.72
2022-11-05T05:03:01.563Z,9.74
2022-11-05T05:05:53.725Z,9.69
2022-11-05T05:08:41.885Z,9.68
2022-11-05T05:11:29.831Z,9.59
2022-11-05T05:14:17.742Z,9.60
2022-11-05T05:17:05.654Z,9.49
2022-11-05T05:20:11.475Z,9.47
2022-11-05T05:23:00.704Z,9.45
2022-11-05T05:25:48.607Z,9.45
2022-11-05T05:28:36.813Z,9.34
2022-11-05T05:31:24.761Z,9.50
2022-11-05T05:34:14.554Z,9.51
2022-11-05T05:37:02.472Z,9.49
2022-11-05T05:39:53.643Z,9.34
2022-11-05T05:42:43.364Z,9.47
2022-11-05T05:45:31.677Z,9.31
2022-11-05T05:48:19.580Z,9.24
2022-11-05T05:51:09.307Z,9.21
2022-11-05T05:53:57.273Z,9.33
2022-11-05T05:56:46.809Z,9.36
2022-11-05T05:59:34.731Z,9.33
2022-11-05T06:02:23.006Z,9.28
2022-11-05T06:05:11.152Z,9.35
2022-11-05T06:07:59.122Z,9.29
2022-11-05T06:10:52.212Z,9.25
2022-11-05T06:13:41.679Z,9.27
2022-11-05T06:16:29.616Z,9.25
2022-11-05T06:19:17.539Z,9.28
2022-11-05T06:22:05.480Z,9.28
2022-11-05T06:24:53.366Z,9.22
2022-11-05T06:27:41.283Z,9.17
2022-11-05T06:30:30.927Z,9.19
2022-11-05T06:33:18.898Z,9.15
2022-11-05T06:36:08.586Z,9.09
2022-11-05T06:38:56.537Z,9.08
2022-11-05T06:42:16.682Z,9.15
2022-11-05T06:44:53.000Z,9.09
2022-11-05T06:47:42.266Z,9.18
2022-11-05T06:50:30.598Z,9.10
2022-11-05T06:53:18.928Z,9.12
2022-11-05T06:56:08.506Z,9.07
2022-11-05T06:58:56.445Z,9.17
2022-11-05T07:01:44.482Z,9.20
2022-11-05T07:04:13.980Z,9.24
2022-11-05T07:06:41.704Z,9.23
2022-11-05T07:09:09.351Z,9.24
2022-11-05T07:11:37.089Z,9.28
2022-11-05T07:14:04.716Z,9.21
2022-11-05T07:16:32.605Z,9.12
2022-11-05T07:19:00.374Z,9.15
2022-11-05T07:21:29.351Z,9.18
2022-11-05T07:23:56.952Z,9.21
2022-11-05T07:26:24.511Z,9.28
2022-11-05T07:28:52.131Z,9.25
2022-11-05T07:31:19.801Z,9.26
2022-11-05T07:33:47.462Z,9.29
2022-11-05T07:36:15.104Z,9.26
2022-11-05T07:38:44.099Z,9.23
2022-11-05T07:41:11.747Z,9.34
2022-11-05T07:43:39.411Z,9.41
2022-11-05T07:46:12.631Z,9.49
2022-11-05T07:48:41.856Z,9.46
2022-11-05T07:51:09.972Z,9.52
2022-11-05T07:53:42.430Z,9.51
2022-11-05T07:56:13.944Z,9.52
2022-11-05T07:58:41.709Z,9.49
2022-11-05T08:01:09.477Z,9.48
2022-11-05T08:03:37.285Z,9.48
2022-11-05T08:06:05.400Z,9.51
2022-11-05T08:08:33.167Z,9.48
2022-11-05T08:11:04.157Z,9.52
2022-11-05T08:13:33.588Z,9.54
2022-11-05T08:16:01.878Z,9.57
2022-11-05T08:18:32.192Z,9.62
2022-11-05T08:21:01.603Z,9.65
2022-11-05T08:23:30.448Z,9.71
2022-11-05T08:25:58.640Z,9.70
2022-11-05T08:28:27.235Z,9.46
2022-11-05T08:30:57.743Z,9.71
2022-11-05T08:33:26.393Z,9.79
2022-11-05T08:35:54.351Z,9.83
2022-11-05T08:38:22.154Z,9.95
2022-11-05T08:40:56.140Z,9.86
2022-11-05T08:43:24.341Z,10.17
2022-11-05T08:45:52.018Z,10.28
2022-11-05T08:48:21.008Z,10.33
2022-11-05T08:50:49.862Z,10.28
2022-11-05T08:53:18.189Z,10.33
2022-11-05T08:55:49.865Z,10.27
2022-11-05T08:58:20.060Z,10.14
2022-11-05T09:00:49.937Z,10.32
2022-11-05T09:03:18.243Z,10.50
2022-11-05T09:05:47.379Z,10.55
2022-11-05T09:08:17.071Z,10.58
2022-11-05T09:10:45.799Z,10.77
2022-11-05T09:13:18.865Z,10.87
2022-11-05T09:15:47.660Z,10.92
2022-11-05T09:18:15.888Z,10.65
2022-11-05T09:20:43.590Z,10.78
2022-11-05T09:23:15.122Z,10.43
2022-11-05T09:25:43.162Z,10.36
2022-11-05T09:28:16.530Z,10.40
2022-11-05T09:30:46.571Z,10.35
2022-11-05T09:33:14.506Z,10.46
2022-11-05T09:35:42.851Z,10.58
2022-11-05T09:38:12.119Z,10.36
2022-11-05T09:40:44.665Z,10.76
2022-11-05T09:43:19.487Z,10.57
2022-11-05T09:45:50.685Z,10.77
2022-11-05T09:48:24.363Z,10.68
2022-11-05T09:50:53.694Z,10.55
2022-11-05T09:53:24.399Z,10.62
2022-11-05T09:55:55.150Z,10.61
2022-11-05T09:58:30.216Z,10.71
2022-11-05T10:00:58.923Z,10.68
2022-11-05T10:03:29.858Z,10.49
2022-11-05T10:06:09.503Z,10.78
2022-11-05T10:08:42.484Z,10.95
2022-11-05T10:11:15.342Z,10.89
2022-11-05T10:13:46.519Z,11.41
2022-11-05T10:16:23.486Z,11.33
2022-11-05T10:18:55.052Z,11.59
2022-11-05T10:21:44.121Z,11.64
2022-11-05T10:24:16.969Z,11.75
2022-11-05T10:26:47.974Z,11.90
2022-11-05T10:29:27.160Z,11.83
2022-11-05T10:31:56.664Z,11.74
2022-11-05T10:34:28.527Z,11.49
2022-11-05T10:36:56.425Z,11.50
2022-11-05T10:39:27.571Z,11.38
2022-11-05T10:42:11.641Z,11.56
2022-11-05T10:44:48.801Z,11.67
2022-11-05T10:47:47.035Z,11.80
2022-11-05T10:50:18.978Z,11.60
2022-11-05T10:52:56.447Z,11.64
2022-11-05T10:55:28.186Z,11.98
2022-11-05T10:57:57.080Z,12.32
2022-11-05T11:00:28.748Z,12.39
2022-11-05T11:02:59.373Z,12.51
2022-11-05T11:05:30.864Z,12.63
2022-11-05T11:08:02.475Z,12.48
2022-11-05T11:10:33.967Z,12.52
2022-11-05T11:13:01.783Z,12.32
2022-11-05T11:15:32.493Z,12.25
2022-11-05T11:18:26.166Z,12.07
2022-11-05T11:20:53.823Z,12.22
2022-11-05T11:23:21.549Z,12.28
2022-11-05T11:25:53.714Z,12.53
2022-11-05T11:28:24.825Z,12.55
2022-11-05T11:30:57.340Z,12.22
2022-11-05T11:33:28.961Z,12.13
2022-11-05T11:35:57.768Z,12.22
2022-11-05T11:38:26.468Z,12.12
2022-11-05T11:41:06.849Z,11.99
2022-11-05T11:43:38.166Z,11.86
2022-11-05T11:46:15.091Z,11.84
2022-11-05T11:48:47.375Z,11.72
2022-11-05T11:51:22.412Z,12.03
2022-11-05T11:53:50.443Z,12.32
2022-11-05T11:56:21.268Z,12.71
2022-11-05T11:58:50.794Z,13.17
2022-11-05T12:01:37.606Z,13.35
2022-11-05T12:04:20.004Z,13.30
2022-11-05T12:06:56.315Z,13.29
2022-11-05T12:09:33.793Z,13.45
2022-11-05T12:12:10.705Z,13.55
2022-11-05T12:14:48.271Z,13.93
2022-11-05T12:17:26.790Z,14.06
2022-11-05T12:20:20.260Z,14.20
2022-11-05T12:23:19.694Z,14.13
2022-11-05T12:25:56.227Z,13.92
2022-11-05T12:28:57.808Z,13.90
2022-11-05T12:31:32.375Z,13.69
2022-11-05T12:34:11.727Z,13.41
2022-11-05T12:37:05.375Z,13.26
2022-11-05T12:39:55.192Z,13.20
2022-11-05T12:42:34.716Z,13.26
2022-11-05T12:45:08.930Z,13.22
2022-11-05T12:47:48.292Z,12.95
2022-11-05T12:50:23.321Z,12.79
2022-11-05T12:53:09.319Z,12.82
2022-11-05T12:55:44.068Z,12.66
2022-11-05T12:58:23.812Z,12.67
2022-11-05T13:00:58.697Z,12.61
2022-11-05T13:03:33.473Z,12.44
2022-11-05T13:06:07.402Z,12.37
2022-11-05T13:08:42.293Z,12.30
2022-11-05T13:11:18.407Z,12.23
2022-11-05T13:13:54.914Z,12.18
2022-11-05T13:16:30.288Z,12.14
2022-11-05T13:19:02.665Z,12.11
2022-11-05T13:21:31.684Z,12.23
2022-11-05T13:24:05.080Z,12.27
2022-11-05T13:26:38.548Z,12.33
2022-11-05T13:29:10.161Z,12.33
2022-11-05T13:31:49.656Z,12.33
2022-11-05T13:34:17.366Z,12.40
2022-11-05T13:37:09.664Z,12.40
2022-11-05T13:39:43.218Z,12.53
2022-11-05T13:42:36.807Z,12.58
2022-11-05T13:45:28.101Z,12.53
2022-11-05T13:48:15.747Z,12.52
2022-11-05T13:51:06.983Z,12.51
2022-11-05T13:53:59.283Z,12.57
2022-11-05T13:56:40.148Z,12.49
2022-11-05T13:59:35.494Z,12.54
2022-11-05T14:02:06.938Z,12.49
2022-11-05T14:04:41.035Z,12.29
2022-11-05T14:07:12.479Z,11.82
2022-11-05T14:09:41.264Z,11.89
2022-11-05T14:12:20.469Z,11.99
2022-11-05T14:14:57.442Z,11.82
2022-11-05T14:17:33.809Z,11.74
2022-11-05T14:20:25.058Z,11.64
2022-11-05T14:22:52.824Z,11.58
2022-11-05T14:26:00.373Z,11.55
2022-11-05T14:28:40.739Z,11.51
2022-11-05T14:31:41.060Z,11.38
2022-11-05T14:34:21.093Z,11.54
2022-11-05T14:39:42.290Z,11.63
2022-11-05T14:42:17.887Z,11.85
2022-11-05T14:45:02.037Z,11.62
2022-11-05T14:47:33.124Z,11.61
2022-11-05T14:50:09.723Z,11.57
2022-11-05T14:52:39.022Z,11.58
2022-11-05T14:55:27.422Z,11.13
2022-11-05T14:58:04.128Z,11.32
2022-11-05T15:00:47.685Z,11.37
2022-11-05T15:03:52.909Z,11.35
2022-11-05T15:06:24.823Z,11.33
2022-11-05T15:09:04.923Z,11.22
2022-11-05T15:11:38.610Z,11.14
2022-11-05T15:14:09.330Z,11.07
2022-11-05T15:16:42.908Z,11.02
2022-11-05T15:19:18.876Z,11.04
2022-11-05T15:21:47.029Z,11.08
2022-11-05T15:24:18.130Z,10.97
2022-11-05T15:27:00.596Z,10.83
2022-11-05T15:29:30.989Z,10.90
2022-11-05T15:32:00.293Z,10.85
2022-11-05T15:34:30.793Z,10.60
2022-11-05T15:37:00.515Z,10.73
2022-11-05T15:39:33.640Z,10.57
2022-11-05T15:42:06.644Z,10.60
2022-11-05T15:44:39.407Z,10.29
2022-11-05T15:47:19.638Z,10.16
2022-11-05T15:49:49.952Z,10.06
2022-11-05T15:52:19.631Z,9.98
2022-11-05T15:54:47.729Z,9.83
2022-11-05T15:57:27.508Z,9.69
2022-11-05T15:59:55.297Z,9.52
2022-11-05T16:02:30.636Z,9.45
2022-11-05T16:04:59.550Z,9.29
2022-11-05T16:07:28.747Z,9.20
2022-11-05T16:09:58.530Z,9.01
2022-11-05T16:12:32.441Z,8.93
2022-11-05T16:15:18.751Z,8.73
2022-11-05T16:17:49.924Z,8.66
2022-11-05T16:20:24.856Z,8.53
2022-11-05T16:22:55.123Z,8.42
2022-11-05T16:25:38.905Z,8.33
2022-11-05T16:28:21.603Z,8.13
2022-11-05T16:30:54.299Z,8.12
2022-11-05T16:33:22.701Z,7.98
2022-11-05T16:35:51.109Z,7.87
2022-11-05T16:38:20.426Z,7.90
2022-11-05T16:40:48.131Z,7.89
2022-11-05T16:43:22.036Z,7.89
2022-11-05T16:45:53.771Z,7.88
2022-11-05T16:48:22.134Z,7.75
2022-11-05T16:50:49.819Z,7.59
2022-11-05T16:53:18.641Z,7.68
2022-11-05T16:55:46.900Z,7.64
2022-11-05T16:58:22.098Z,7.73
2022-11-05T17:00:51.404Z,7.79
2022-11-05T17:03:19.747Z,7.71
2022-11-05T17:05:47.942Z,7.64
2022-11-05T17:08:15.947Z,7.56
2022-11-05T17:10:43.916Z,7.21
2022-11-05T17:13:15.112Z,7.47
2022-11-05T17:15:46.252Z,7.29
2022-11-05T17:18:18.629Z,7.20
2022-11-05T17:20:48.552Z,7.19
2022-11-05T17:23:17.684Z,7.09
2022-11-05T17:25:48.241Z,7.06
2022-11-05T17:28:17.221Z,6.94
2022-11-05T17:30:52.289Z,6.86
2022-11-05T17:33:22.550Z,6.86
2022-11-05T17:35:50.934Z,6.74
2022-11-05T17:38:18.916Z,6.67
2022-11-05T17:40:46.741Z,6.71
2022-11-05T17:43:15.444Z,6.77
2022-11-05T17:45:44.666Z,6.71
2022-11-05T17:48:14.308Z,6.64
2022-11-05T17:50:42.644Z,6.67
2022-11-05T17:53:11.181Z,6.56
2022-11-05T17:55:41.400Z,6.31
2022-11-05T17:58:09.504Z,6.46
2022-11-05T18:00:37.857Z,6.23
2022-11-05T18:03:06.072Z,6.48
2022-11-05T18:05:36.236Z,6.52
2022-11-05T18:08:04.586Z,6.36
2022-11-05T18:10:32.262Z,6.39
2022-11-05T18:13:00.109Z,6.42
2022-11-05T18:15:27.831Z,6.37
2022-11-05T18:17:55.597Z,6.34
2022-11-05T18:20:23.327Z,6.34
2022-11-05T18:22:52.695Z,6.30
2022-11-05T18:25:20.475Z,6.28
2022-11-05T18:27:48.135Z,6.29
2022-11-05T18:30:15.943Z,6.33
2022-11-05T18:32:44.190Z,6.32
2022-11-05T18:35:13.082Z,6.31
2022-11-05T18:37:41.017Z,6.35
2022-11-05T18:40:11.584Z,6.27
2022-11-05T18:42:39.302Z,6.33
2022-11-05T18:45:08.532Z,6.36
2022-11-05T18:47:36.718Z,6.41
2022-11-05T18:50:05.499Z,6.47
2022-11-05T18:52:33.738Z,6.41
2022-11-05T18:55:01.365Z,6.57
2022-11-05T18:57:30.368Z,6.57
2022-11-05T18:59:58.060Z,6.53
2022-11-05T19:02:26.055Z,6.49
2022-11-05T19:05:27.504Z,6.47
2022-11-05T19:07:41.448Z,6.54
2022-11-05T19:10:10.337Z,6.50
2022-11-05T19:12:39.419Z,6.49
2022-11-05T19:15:08.026Z,6.55
2022-11-05T19:17:36.432Z,6.57
2022-11-05T19:20:05.322Z,6.58
2022-11-05T19:22:33.260Z,6.55
2022-11-05T19:25:00.919Z,6.67
2022-11-05T19:27:28.733Z,6.72
2022-11-05T19:29:57.705Z,6.80
2022-11-05T19:32:25.338Z,6.77
2022-11-05T19:34:52.959Z,6.65
2022-11-05T19:37:20.659Z,6.55
2022-11-05T19:39:48.359Z,6.67
2022-11-05T19:42:16.031Z,6.71
2022-11-05T19:44:44.144Z,6.66
2022-11-05T19:47:13.121Z,6.62
2022-11-05T19:49:40.757Z,6.54
2022-11-05T19:52:08.409Z,6.52
2022-11-05T19:54:36.419Z,6.57
2022-11-05T19:57:04.214Z,6.57
2022-11-05T19:59:31.905Z,6.59
2022-11-05T20:01:59.696Z,6.58
2022-11-05T20:04:28.800Z,6.51
2022-11-05T20:06:56.424Z,6.45
2022-11-05T20:09:24.412Z,6.51
2022-11-05T20:11:54.164Z,6.47
2022-11-05T20:14:22.023Z,6.48
2022-11-05T20:16:50.176Z,6.63
2022-11-05T20:19:20.150Z,6.58
2022-11-05T20:21:49.683Z,6.54
2022-11-05T20:24:24.219Z,6.60
2022-11-05T20:26:52.809Z,6.63
2022-11-05T20:29:20.659Z,6.58
2022-11-05T20:31:48.467Z,6.47
2022-11-05T20:34:16.104Z,6.42
2022-11-05T20:36:43.804Z,6.37
2022-11-05T20:39:13.163Z,6.28
2022-11-05T20:41:40.775Z,6.27
2022-11-05T20:44:08.450Z,6.03
2022-11-05T20:46:36.113Z,6.09
2022-11-05T20:49:03.798Z,6.04
2022-11-05T20:51:31.527Z,5.97
2022-11-05T20:54:01.159Z,5.97
2022-11-05T20:56:32.486Z,5.88
2022-11-05T20:59:01.385Z,5.88
2022-11-05T21:01:30.838Z,5.89
2022-11-05T21:04:17.202Z,5.84
2022-11-05T21:07:05.245Z,5.84
2022-11-05T21:09:53.163Z,5.89
2022-11-05T21:12:42.738Z,5.81
2022-11-05T21:15:30.744Z,5.84
2022-11-05T21:18:18.976Z,5.76
2022-11-05T21:21:08.647Z,5.79
2022-11-05T21:23:58.020Z,5.87
2022-11-05T21:26:46.248Z,5.77
2022-11-05T21:29:35.522Z,5.82
2022-11-05T21:32:23.460Z,5.82
2022-11-05T21:35:11.374Z,5.82
2022-11-05T21:37:59.491Z,5.69
2022-11-05T21:40:47.938Z,5.14
2022-11-05T21:43:36.433Z,5.72
2022-11-05T21:46:26.034Z,5.71
2022-11-05T21:49:14.678Z,5.78
2022-11-05T21:52:20.496Z,5.83
2022-11-05T21:55:36.382Z,5.77
2022-11-05T21:58:42.090Z,5.80
2022-11-05T22:01:31.620Z,5.89
2022-11-05T22:04:19.611Z,5.93
2022-11-05T22:07:09.371Z,5.93
2022-11-05T22:09:57.308Z,5.97
2022-11-05T22:12:45.734Z,6.07
2022-11-05T22:15:33.681Z,6.23
2022-11-05T22:18:23.084Z,6.20
2022-11-05T22:21:16.798Z,6.10
2022-11-05T22:24:04.882Z,6.19
2022-11-05T22:26:52.825Z,6.12
2022-11-05T22:29:41.095Z,6.59
2022-11-05T22:32:29.027Z,6.71
2022-11-05T22:35:18.431Z,6.70
2022-11-05T22:38:06.334Z,6.55
2022-11-05T22:40:54.228Z,6.66
2022-11-05T22:43:42.243Z,6.65
2022-11-05T22:46:30.876Z,6.90
2022-11-05T22:49:18.920Z,7.23
2022-11-05T22:52:08.172Z,7.33
2022-11-05T22:54:56.164Z,7.45
2022-11-05T22:57:44.521Z,7.36
2022-11-05T23:00:35.985Z,7.63
2022-11-05T23:03:25.373Z,7.74
2022-11-05T23:06:29.229Z,7.91
2022-11-05T23:09:37.723Z,8.05
2022-11-05T23:12:29.251Z,8.11
2022-11-05T23:15:31.120Z,8.08
2022-11-05T23:18:36.818Z,8.26
2022-11-05T23:21:42.449Z,8.15
2022-11-05T23:24:31.725Z,8.19
2022-11-05T23:27:19.654Z,8.21
2022-11-05T23:30:10.318Z,8.34
2022-11-05T23:32:58.633Z,8.29
2022-11-05T23:36:04.648Z,8.50
2022-11-05T23:38:52.563Z,8.57
2022-11-05T23:41:58.540Z,8.50
2022-11-05T23:45:04.249Z,8.25
2022-11-05T23:48:10.034Z,7.97
2022-11-05T23:51:00.964Z,7.96
2022-11-05T23:53:48.883Z,8.03
2022-11-05T23:56:37.180Z,7.97
2022-11-05T23:59:26.605Z,7.97
